CheckWX is a tool to help pilots better visualize weather data.  It is not intended as a substitute for an official pre-flight weather briefing.

13:21:24 UTC

DNAA METAR
Nnamdi Azikiwe International Airport
Abuja, Nigeria
Current

21 mins ago

DNAA 221300Z 27005KT 7000 FEW012 36/17 Q1011 NOSIG
Observed
Feb-22 @ 13:00 UTC
Wind
  • 270° at 5 KTS
Visibility
7,001 meters
Flight Rules
MVFR
Cloud Levels
  • Few at 1,200' AGL
Temperature
36°C / 97°F
Dewpoint
17°C / 63°F
Humidity
32%
Altimeter
29.85" Hg
Pressure
1010.92 hPa
Previous

2 hours ago

DNAA 221100Z 21004KT 6000 FEW010 33/19 Q1014 NOSIG
Observed
Feb-22 @ 11:00 UTC
Wind
  • 210° at 4 KTS
Visibility
6,003 meters
Flight Rules
MVFR
Cloud Levels
  • Few at 1,000' AGL
Temperature
33°C / 91°F
Dewpoint
19°C / 66°F
Humidity
44%
Altimeter
29.94" Hg
Pressure
1013.92 hPa
Previous

3 hours ago

DNAA 221000Z 21006KT 4500 HZ NSC 32/19 Q1015 BECMG 5000
Observed
Feb-22 @ 10:00 UTC
Wind
  • 210° at 6 KTS
Visibility
4,506 meters
Flight Rules
IFR
Conditions
Haze
Cloud Levels
  • Clear skies
Temperature
32°C / 90°F
Dewpoint
19°C / 66°F
Humidity
46%
Altimeter
29.97" Hg
Pressure
1014.92 hPa